Time;durP1;ratioP1;P1;durP2;ratioP2;P2;SDS_P1;SDS_P2;PMS_P1;PMS_P2;Temp;Humidity;BMP_temperature;BMP_pressure;BME280_temperature;BME280_humidity;BME280_pressure;Samples;Min_cycle;Max_cycle;Signal;HPM_P1;HPM_P2
2023/10/01 00:00:29;;;;;;;19.05;4.10;;;;;;;16.05;84.94;102373.16;6100984;19;20158;-75
2023/10/01 00:02:34;;;;;;;10.35;4.00;;;;;;;16.02;84.87;102384.72;6102228;19;20027;-73
2023/10/01 00:04:40;;;;;;;10.75;3.85;;;;;;;16.07;84.37;102370.44;6105073;19;20033;-73
2023/10/01 00:06:47;;;;;;;12.45;4.05;;;;;;;16.06;84.75;102374.00;6105250;19;20027;-73
2023/10/01 00:08:49;;;;;;;10.02;3.67;;;;;;;16.08;84.75;102378.31;6106456;19;20017;-74
2023/10/01 00:10:55;;;;;;;13.63;4.63;;;;;;;16.05;84.54;102373.16;6105369;19;21439;-74
2023/10/01 00:13:04;;;;;;;13.98;3.67;;;;;;;16.03;84.65;102372.34;6102940;19;20007;-75
2023/10/01 00:15:13;;;;;;;15.77;4.30;;;;;;;16.05;84.74;102374.94;6099654;19;20002;-73
2023/10/01 00:17:18;;;;;;;13.95;4.28;;;;;;;16.00;84.58;102370.66;6102666;19;20003;-74
2023/10/01 00:19:23;;;;;;;12.15;4.18;;;;;;;15.93;85.55;102378.91;6098190;19;20019;-74
2023/10/01 00:21:29;;;;;;;10.40;3.88;;;;;;;15.91;85.81;102381.63;6103754;19;20418;-73
2023/10/01 00:23:37;;;;;;;8.75;4.00;;;;;;;15.86;86.10;102380.94;6100861;19;20030;-74
2023/10/01 00:25:46;;;;;;;14.20;5.35;;;;;;;15.90;85.86;102379.88;6102989;19;20066;-74
2023/10/01 00:27:49;;;;;;;13.27;4.40;;;;;;;15.87;86.21;102387.13;6104723;19;20023;-74
2023/10/01 00:29:57;;;;;;;10.98;4.20;;;;;;;15.86;86.32;102380.09;6105448;19;20016;-74
2023/10/01 00:32:03;;;;;;;12.73;4.07;;;;;;;15.84;87.03;102373.97;6103501;19;20029;-74
2023/10/01 00:34:09;;;;;;;11.40;3.97;;;;;;;15.84;87.05;102376.63;6103622;19;20006;-74
2023/10/01 00:36:14;;;;;;;14.93;5.03;;;;;;;15.83;87.31;102380.22;6103258;19;20030;-74
2023/10/01 00:38:19;;;;;;;13.82;4.13;;;;;;;15.72;87.57;102365.56;6103068;19;20667;-75
2023/10/01 00:40:22;;;;;;;12.50;5.05;;;;;;;15.68;87.89;102365.72;6103408;19;20414;-75
2023/10/01 00:42:28;;;;;;;12.48;4.90;;;;;;;15.63;88.63;102360.56;6093656;19;20002;-75
2023/10/01 00:44:34;;;;;;;16.55;5.28;;;;;;;15.60;89.12;102360.69;6101236;19;20038;-75
2023/10/01 00:46:43;;;;;;;13.18;4.35;;;;;;;15.62;89.20;102372.09;6100619;19;20078;-73
2023/10/01 00:48:48;;;;;;;12.55;5.18;;;;;;;15.55;89.39;102371.44;6099963;19;20534;-74
2023/10/01 00:50:56;;;;;;;13.35;4.50;;;;;;;15.53;89.93;102367.13;6101997;19;20006;-74
2023/10/01 00:53:01;;;;;;;16.98;6.05;;;;;;;15.54;90.54;102363.59;6100042;19;20037;-74
2023/10/01 00:55:08;;;;;;;12.90;4.07;;;;;;;15.54;90.18;102358.28;6099919;19;20038;-73
2023/10/01 00:57:15;;;;;;;12.63;4.90;;;;;;;15.45;90.82;102356.81;6101936;19;20094;-74
2023/10/01 00:59:20;;;;;;;13.90;4.68;;;;;;;15.44;91.08;102360.41;6101928;19;20010;-73
2023/10/01 01:01:26;;;;;;;15.23;5.07;;;;;;;15.40;91.27;102369.34;6102237;19;20023;-73
2023/10/01 01:03:34;;;;;;;11.38;4.43;;;;;;;15.30;91.81;102358.25;6095275;19;20030;-75
2023/10/01 01:05:49;;;;;;;14.63;4.30;;;;;;;15.25;92.76;102352.25;6099351;19;19998;-76
2023/10/01 01:08:00;;;;;;;12.07;4.95;;;;;;;15.20;92.89;102350.69;6101003;19;20086;-75
2023/10/01 01:10:07;;;;;;;14.00;5.38;;;;;;;15.23;93.50;102363.81;6099638;19;20017;-74
2023/10/01 01:12:15;;;;;;;10.60;4.38;;;;;;;15.15;93.63;102357.00;6101229;19;20399;-73
2023/10/01 01:14:21;;;;;;;14.57;4.43;;;;;;;15.13;94.12;102347.38;6103578;19;20007;-74
2023/10/01 01:16:28;;;;;;;15.15;4.95;;;;;;;15.10;94.17;102348.38;6104754;19;20010;-73
2023/10/01 01:18:36;;;;;;;14.10;4.47;;;;;;;15.13;94.02;102344.75;6101836;19;20006;-74
2023/10/01 01:20:45;;;;;;;18.08;4.85;;;;;;;15.09;94.44;102343.13;6101150;19;20006;-74
2023/10/01 01:22:55;;;;;;;11.75;4.95;;;;;;;15.09;94.46;102337.84;6102266;19;20042;-74
2023/10/01 01:25:09;;;;;;;13.10;5.25;;;;;;;15.04;94.84;102339.78;6101941;19;20014;-73
2023/10/01 01:27:15;;;;;;;14.05;4.85;;;;;;;15.04;95.08;102342.44;6096137;19;20398;-75
2023/10/01 01:29:18;;;;;;;11.75;4.10;;;;;;;15.03;95.23;102338.91;6099605;19;20006;-73
2023/10/01 01:31:28;;;;;;;14.90;5.10;;;;;;;15.03;95.16;102328.31;6102851;19;20356;-74
2023/10/01 01:33:40;;;;;;;16.30;5.13;;;;;;;15.09;95.14;102328.09;6102961;19;20038;-73
2023/10/01 01:35:53;;;;;;;13.93;4.85;;;;;;;15.07;95.40;102334.38;6099384;19;20008;-74
2023/10/01 01:38:02;;;;;;;12.57;4.53;;;;;;;15.11;95.57;102335.97;6101256;19;20037;-73
2023/10/01 01:40:23;;;;;;;11.88;4.75;;;;;;;15.11;95.72;102330.69;6097466;19;20030;-74
2023/10/01 01:42:30;;;;;;;18.10;5.07;;;;;;;15.09;95.74;102341.34;6097370;19;20010;-73
2023/10/01 01:44:38;;;;;;;12.63;4.18;;;;;;;15.14;95.57;102327.97;6097964;19;20010;-75
2023/10/01 01:46:59;;;;;;;13.40;6.07;;;;;;;15.12;95.68;102322.69;6100221;19;20006;-73
2023/10/01 01:49:09;;;;;;;13.82;5.93;;;;;;;15.19;95.48;102327.75;6095303;19;20013;-73
2023/10/01 01:51:17;;;;;;;16.45;5.00;;;;;;;15.18;95.49;102313.66;6101316;19;20343;-74
2023/10/01 01:53:22;;;;;;;13.57;4.90;;;;;;;15.18;95.70;102310.16;6096949;19;20042;-74
2023/10/01 01:55:31;;;;;;;16.48;5.50;;;;;;;15.19;95.55;102309.22;6102217;19;20064;-73
2023/10/01 01:57:36;;;;;;;17.70;5.70;;;;;;;15.17;95.58;102309.31;6101735;19;20011;-73
2023/10/01 01:59:41;;;;;;;13.48;4.97;;;;;;;15.19;95.44;102303.94;6100804;19;20086;-73
2023/10/01 02:01:44;;;;;;;13.82;5.20;;;;;;;15.23;95.31;102306.41;6100253;19;20011;-74
2023/10/01 02:03:51;;;;;;;11.55;4.93;;;;;;;15.23;95.50;102310.84;6099577;19;20006;-74
2023/10/01 02:05:59;;;;;;;20.52;6.57;;;;;;;15.24;95.67;102313.44;6099536;19;20416;-74
2023/10/01 02:08:07;;;;;;;15.20;4.90;;;;;;;15.22;95.35;102307.34;6100651;19;20014;-74
2023/10/01 02:10:16;;;;;;;16.38;5.60;;;;;;;15.27;95.49;102312.47;6096112;19;20034;-74
2023/10/01 02:12:29;;;;;;;15.43;5.43;;;;;;;15.28;95.62;102314.22;6100288;19;20002;-74
2023/10/01 02:14:35;;;;;;;;;;;;;;;15.27;95.49;102310.69;6095276;19;20073;-74
2023/10/01 02:16:37;;;;;;;12.65;4.95;;;;;;;15.29;95.74;102308.84;6097611;19;19906;-74
2023/10/01 02:18:55;;;;;;;17.50;5.72;;;;;;;15.29;95.32;102308.84;6101094;19;20010;-75
2023/10/01 02:21:16;;;;;;;17.05;6.13;;;;;;;15.28;95.61;102322.16;6100011;19;20624;-75
2023/10/01 02:23:26;;;;;;;17.02;5.55;;;;;;;15.29;95.72;102313.28;6101271;19;20585;-75
2023/10/01 02:25:45;;;;;;;16.77;5.93;;;;;;;15.32;95.25;102314.03;6106249;19;20011;-74
2023/10/01 02:28:06;;;;;;;17.50;5.75;;;;;;;15.30;95.71;102309.72;6107279;19;20082;-75
2023/10/01 02:30:21;;;;;;;19.52;7.00;;;;;;;15.31;95.70;102311.44;6108028;19;20049;-74
2023/10/01 02:32:24;;;;;;;21.55;6.05;;;;;;;15.29;96.25;102311.47;6107769;19;20609;-75
2023/10/01 02:34:32;;;;;;;18.00;5.20;;;;;;;15.30;96.20;102305.28;6099622;19;20014;-73
2023/10/01 02:36:36;;;;;;;20.10;5.88;;;;;;;15.28;96.50;102311.56;6103915;19;20011;-73
2023/10/01 02:38:45;;;;;;;18.40;6.00;;;;;;;15.28;96.44;102306.25;6106898;19;20011;-74
2023/10/01 02:40:50;;;;;;;15.45;6.30;;;;;;;15.28;96.86;102300.97;6108319;19;21137;-73
2023/10/01 02:42:56;;;;;;;16.88;5.88;;;;;;;15.31;96.67;102304.34;6106444;19;20030;-74
2023/10/01 02:44:58;;;;;;;17.00;5.63;;;;;;;15.24;97.09;102309.94;6107600;19;20021;-74
2023/10/01 02:47:09;;;;;;;18.10;5.93;;;;;;;15.28;97.07;102298.31;6105900;19;20517;-74
2023/10/01 02:49:12;;;;;;;17.77;6.13;;;;;;;15.24;97.20;102304.63;6107110;19;20006;-73
2023/10/01 02:51:32;;;;;;;18.02;5.93;;;;;;;15.24;97.41;102308.13;6106959;19;20521;-73
2023/10/01 02:53:42;;;;;;;17.08;5.03;;;;;;;15.20;97.86;102303.88;6103432;19;20517;-75
2023/10/01 02:55:53;;;;;;;15.90;5.82;;;;;;;15.23;97.56;102311.72;6108469;19;20017;-75
2023/10/01 02:58:02;;;;;;;21.70;6.13;;;;;;;15.24;97.73;102308.13;6110158;19;20024;-75
2023/10/01 03:00:30;;;;;;;19.10;5.72;;;;;;;15.29;97.61;102303.53;6105747;19;20030;-74
2023/10/01 03:02:33;;;;;;;16.95;7.43;;;;;;;15.27;97.98;102310.69;6101922;19;20456;-75
2023/10/01 03:04:46;;;;;;;18.10;5.75;;;;;;;15.23;98.00;102301.13;6107183;19;20014;-76
2023/10/01 03:06:56;;;;;;;16.02;5.63;;;;;;;15.23;98.57;102302.91;6105554;19;20026;-73
2023/10/01 03:09:00;;;;;;;16.48;5.82;;;;;;;15.23;99.02;102309.06;6105518;19;20011;-74
2023/10/01 03:11:08;;;;;;;17.77;5.13;;;;;;;15.26;98.55;102301.00;6104583;19;20513;-74
2023/10/01 03:13:15;;;;;;;17.85;5.80;;;;;;;15.26;98.93;102301.00;6103924;19;20011;-74
2023/10/01 03:15:24;;;;;;;13.88;5.72;;;;;;;15.25;99.18;102301.94;6102930;19;20525;-74
2023/10/01 03:17:28;;;;;;;13.70;5.28;;;;;;;15.25;99.51;102291.34;6104946;19;20013;-74
2023/10/01 03:19:36;;;;;;;15.95;5.57;;;;;;;15.29;98.99;102292.94;6104681;19;20009;-74
2023/10/01 03:23:58;;;;;;;17.08;6.13;;;;;;;15.26;99.59;102298.34;6102904;19;20140;-73
2023/10/01 03:26:05;;;;;;;15.60;5.25;;;;;;;15.27;99.92;102294.81;6105534;19;20070;-74
2023/10/01 03:28:26;;;;;;;17.02;5.78;;;;;;;15.31;99.71;102295.56;6105395;19;20038;-74
2023/10/01 03:30:32;;;;;;;18.95;5.13;;;;;;;15.36;99.38;102296.25;6101841;19;20562;-74
2023/10/01 03:32:40;;;;;;;16.13;5.35;;;;;;;15.34;99.62;102303.38;6105478;19;20909;-74
2023/10/01 03:34:43;;;;;;;20.85;5.63;;;;;;;15.35;99.87;102298.03;6105845;19;20367;-74
2023/10/01 03:36:52;;;;;;;17.92;6.30;;;;;;;15.34;99.93;102287.47;6099710;19;20033;-74
2023/10/01 03:39:25;;;;;;;14.60;5.45;;;;;;;15.31;100.00;102285.81;6105061;19;20042;-74
2023/10/01 03:41:27;;;;;;;20.40;6.10;;;;;;;15.34;99.87;102291.00;6105461;19;20034;-76
2023/10/01 03:43:32;;;;;;;23.13;5.78;;;;;;;15.34;100.00;102296.28;6104472;19;20392;-73
2023/10/01 03:45:55;;;;;;;16.52;5.88;;;;;;;15.32;100.00;102284.91;6104356;19;20006;-75
2023/10/01 03:47:58;;;;;;;16.73;6.00;;;;;;;15.38;99.98;102291.75;6107671;19;20554;-74
2023/10/01 03:50:03;;;;;;;;;;;;;;;15.41;100.00;102289.00;6101185;19;20435;-73
2023/10/01 03:52:09;;;;;;;23.88;7.10;;;;;;;15.39;100.00;102284.66;6102945;19;20477;-74
2023/10/01 03:54:26;;;;;;;17.33;6.45;;;;;;;15.43;100.00;102289.81;6105637;19;21182;-74
2023/10/01 03:56:30;;;;;;;15.90;6.53;;;;;;;15.39;100.00;102284.66;6100009;19;20537;-74
2023/10/01 03:58:38;;;;;;;19.30;5.65;;;;;;;15.46;100.00;102294.13;6106827;19;20015;-74
2023/10/01 04:00:53;;;;;;;18.15;5.85;;;;;;;15.39;100.00;102293.47;6104047;19;20078;-74
2023/10/01 04:02:56;;;;;;;13.60;5.45;;;;;;;15.42;100.00;102287.19;6105644;19;20015;-74
2023/10/01 04:05:05;;;;;;;21.58;6.97;;;;;;;15.36;100.00;102288.28;6104648;19;20010;-74
2023/10/01 04:07:12;;;;;;;15.82;5.75;;;;;;;15.36;100.00;102297.09;6105022;19;20078;-75
2023/10/01 04:09:19;;;;;;;21.75;5.85;;;;;;;15.47;100.00;102287.88;6105295;19;20098;-75
2023/10/01 04:11:41;;;;;;;20.52;6.72;;;;;;;15.36;100.00;102283.84;6099689;19;20003;-75
2023/10/01 04:14:07;;;;;;;17.83;5.90;;;;;;;15.39;100.00;102282.03;6101855;19;20487;-74
2023/10/01 04:16:15;;;;;;;20.70;6.15;;;;;;;15.36;100.00;102291.81;6103285;19;20010;-74
2023/10/01 04:18:24;;;;;;;21.52;6.55;;;;;;;15.41;100.00;102288.13;6103682;19;20006;-73
2023/10/01 04:20:29;;;;;;;16.85;6.65;;;;;;;15.39;100.00;102287.31;6101377;19;20077;-73
2023/10/01 04:22:33;;;;;;;21.88;6.85;;;;;;;15.33;100.00;102276.03;6104784;19;20070;-74
2023/10/01 04:24:38;;;;;;;18.83;6.82;;;;;;;15.36;100.00;102286.50;6101919;19;20065;-74
2023/10/01 04:26:46;;;;;;;22.63;7.13;;;;;;;15.35;100.00;102278.63;6103914;19;20010;-74
2023/10/01 04:28:55;;;;;;;23.42;6.75;;;;;;;15.35;100.00;102282.13;6103400;19;20045;-75
2023/10/01 04:31:03;;;;;;;24.13;6.10;;;;;;;15.41;100.00;102290.78;6102516;19;20021;-75
2023/10/01 04:33:23;;;;;;;22.70;7.93;;;;;;;15.39;100.00;102287.31;6103454;19;20018;-73
2023/10/01 04:35:28;;;;;;;21.73;6.68;;;;;;;15.44;100.00;102282.72;6101349;19;20002;-74
2023/10/01 04:37:41;;;;;;;18.58;8.00;;;;;;;15.46;100.00;102288.81;6102543;19;20081;-75
2023/10/01 04:39:46;;;;;;;28.92;8.10;;;;;;;15.46;100.00;102284.38;6104134;19;20027;-75
2023/10/01 04:41:58;;;;;;;22.30;6.47;;;;;;;15.46;100.00;102288.81;6062574;19;20742;-74
2023/10/01 04:44:08;;;;;;;20.38;6.20;;;;;;;15.43;100.00;102294.22;6101680;19;20530;-74
2023/10/01 04:46:24;;;;;;;18.75;6.30;;;;;;;15.45;100.00;102290.59;6103951;19;20134;-73
2023/10/01 04:48:32;;;;;;;23.63;7.50;;;;;;;15.45;100.00;102284.44;6096054;19;20038;-75
2023/10/01 04:50:37;;;;;;;24.05;7.40;;;;;;;15.43;100.00;102289.81;6081148;19;19998;-74
2023/10/01 04:52:48;;;;;;;28.30;6.80;;;;;;;15.47;100.00;102285.25;6098212;19;21231;-73
2023/10/01 04:54:52;;;;;;;19.95;6.93;;;;;;;15.47;100.00;102290.53;6049577;19;20023;-74
2023/10/01 04:57:19;;;;;;;26.58;7.10;;;;;;;15.50;100.00;102291.28;6100669;19;20015;-74
2023/10/01 04:59:27;;;;;;;23.13;7.28;;;;;;;15.52;100.00;102288.59;6102460;19;20360;-75
2023/10/01 05:01:32;;;;;;;17.92;6.90;;;;;;;15.51;100.00;102285.06;6100685;19;20007;-73
2023/10/01 05:03:44;;;;;;;25.80;8.23;;;;;;;15.47;100.00;102279.94;6101437;19;20011;-74
2023/10/01 05:05:49;;;;;;;19.85;6.72;;;;;;;15.50;100.00;102274.53;6103722;19;20042;-74
2023/10/01 05:07:59;;;;;;;29.50;9.38;;;;;;;15.49;100.00;102272.81;6102752;19;20014;-74
2023/10/01 05:10:19;;;;;;;38.50;8.55;;;;;;;15.48;100.00;102281.66;6079164;19;20046;-74
2023/10/01 05:12:30;;;;;;;25.27;7.75;;;;;;;15.49;100.00;102275.47;6094669;19;20010;-76
2023/10/01 05:14:59;;;;;;;24.77;7.22;;;;;;;15.46;100.00;102278.22;6095595;19;20012;-75
2023/10/01 05:17:07;;;;;;;26.48;7.70;;;;;;;15.45;100.00;102281.78;6099630;19;20763;-75
2023/10/01 05:19:13;;;;;;;25.25;7.72;;;;;;;15.50;100.00;102295.72;6101147;19;20010;-76
2023/10/01 05:21:23;;;;;;;26.67;8.73;;;;;;;15.44;100.00;102291.50;6077689;19;20003;-75
2023/10/01 05:23:28;;;;;;;27.88;7.00;;;;;;;15.49;100.00;102294.00;6100573;19;20323;-75
2023/10/01 05:25:45;;;;;;;27.95;8.50;;;;;;;15.51;100.00;102303.63;6101043;19;20069;-74
2023/10/01 05:27:54;;;;;;;19.17;6.70;;;;;;;15.49;100.00;102299.31;6101159;19;20381;-74
2023/10/01 05:30:05;;;;;;;22.90;7.70;;;;;;;15.46;100.00;102305.56;6105001;19;20003;-73
2023/10/01 05:32:11;;;;;;;22.92;8.63;;;;;;;15.48;100.00;102302.84;6104200;19;20018;-74
2023/10/01 05:34:19;;;;;;;25.15;7.50;;;;;;;15.43;100.00;102303.03;6101245;19;20002;-75
2023/10/01 05:36:26;;;;;;;24.42;8.10;;;;;;;15.43;100.00;102295.09;6103912;19;20018;-73
2023/10/01 05:38:46;;;;;;;23.25;9.60;;;;;;;15.47;100.00;102298.50;6099594;19;20510;-75
2023/10/01 05:40:54;;;;;;;29.25;8.35;;;;;;;15.48;100.00;102305.50;6101447;19;20135;-76
2023/10/01 05:43:13;;;;;;;27.38;7.63;;;;;;;15.47;100.00;102296.69;6101484;19;20049;-74
2023/10/01 05:45:36;;;;;;;26.33;7.78;;;;;;;15.45;100.00;102292.38;6104116;19;20013;-74
2023/10/01 05:47:51;;;;;;;27.90;9.30;;;;;;;15.46;100.00;102300.28;6100246;19;20029;-74
2023/10/01 05:49:59;;;;;;;21.70;7.50;;;;;;;15.47;100.00;102298.50;6101596;19;20020;-75
2023/10/01 05:52:07;;;;;;;34.17;8.18;;;;;;;15.49;100.00;102299.31;6095386;19;20010;-75
2023/10/01 05:54:18;;;;;;;27.25;8.80;;;;;;;15.45;100.00;102306.47;6077925;19;20395;-75
2023/10/01 05:56:36;;;;;;;21.83;8.32;;;;;;;15.44;100.00;102307.41;6101430;19;20031;-75
2023/10/01 05:58:52;;;;;;;28.77;7.68;;;;;;;15.45;100.00;102301.19;6066626;19;20010;-74
2023/10/01 06:01:13;;;;;;;28.00;8.52;;;;;;;15.47;100.00;102302.00;6080374;19;20470;-75
2023/10/01 06:03:20;;;;;;;26.50;8.18;;;;;;;15.49;100.00;102302.81;6097531;19;20017;-74
2023/10/01 06:05:33;;;;;;;30.02;7.53;;;;;;;15.48;100.00;102298.44;6100080;19;20002;-75
2023/10/01 06:07:42;;;;;;;26.92;8.00;;;;;;;15.48;100.00;102297.56;6101388;19;20027;-75
2023/10/01 06:09:51;;;;;;;26.40;7.55;;;;;;;15.45;100.00;102300.31;6103233;19;20474;-75
2023/10/01 06:12:10;;;;;;;25.48;8.23;;;;;;;15.44;100.00;102301.25;6086397;19;20007;-73
2023/10/01 06:16:43;;;;;;;26.55;9.02;;;;;;;15.29;100.00;102300.88;6090702;19;20018;-76
2023/10/01 06:18:56;;;;;;;26.77;7.63;;;;;;;15.28;100.00;102304.47;6093740;19;20509;-74
2023/10/01 06:21:03;;;;;;;26.75;9.10;;;;;;;15.29;100.00;102300.03;6095000;19;20567;-75
2023/10/01 06:23:08;;;;;;;22.52;8.02;;;;;;;15.21;100.00;102305.59;6061744;19;20006;-75
2023/10/01 06:25:16;;;;;;;20.58;7.43;;;;;;;15.19;100.00;102298.63;6074763;19;20436;-74
2023/10/01 06:27:26;;;;;;;18.67;7.60;;;;;;;15.19;100.00;102301.28;6064056;19;20018;-75
2023/10/01 06:29:40;;;;;;;19.15;8.23;;;;;;;15.19;100.00;102301.28;6097118;19;20259;-74
2023/10/01 06:31:52;;;;;;;24.02;7.32;;;;;;;15.14;100.00;102304.13;6099545;19;20006;-74
2023/10/01 06:34:03;;;;;;;28.52;8.90;;;;;;;15.15;100.00;102297.91;6101144;19;20009;-74
2023/10/01 06:36:15;;;;;;;23.38;8.38;;;;;;;15.18;100.00;102297.78;6100146;19;20019;-74
2023/10/01 06:38:24;;;;;;;21.15;8.95;;;;;;;15.13;100.00;102300.59;6096051;19;20010;-74
2023/10/01 06:40:34;;;;;;;24.55;8.32;;;;;;;15.15;100.00;102292.59;6077128;19;20490;-75
2023/10/01 06:42:44;;;;;;;26.83;9.13;;;;;;;15.19;100.00;102285.41;6099861;19;20006;-75
2023/10/01 06:44:54;;;;;;;25.88;7.78;;;;;;;15.15;100.00;102289.94;6076082;19;20030;-75
2023/10/01 06:47:14;;;;;;;25.60;8.90;;;;;;;15.16;100.00;102291.66;6097055;19;20011;-74
2023/10/01 06:49:23;;;;;;;22.70;8.32;;;;;;;15.20;100.00;102292.44;6100244;19;20046;-74
2023/10/01 06:51:43;;;;;;;18.73;7.32;;;;;;;15.20;100.00;102298.59;6080011;19;20449;-75
2023/10/01 06:53:47;;;;;;;27.13;7.65;;;;;;;15.24;100.00;102294.91;6073815;19;20011;-75
2023/10/01 06:55:57;;;;;;;22.63;7.88;;;;;;;15.23;100.00;102295.81;6078425;19;20485;-74
2023/10/01 06:58:06;;;;;;;20.35;7.88;;;;;;;15.26;100.00;102294.84;6078998;19;20707;-74
2023/10/01 07:00:21;;;;;;;24.40;8.52;;;;;;;15.29;100.00;102303.53;6096626;19;20435;-75
2023/10/01 07:04:56;;;;;;;25.13;8.18;;;;;;;15.32;100.00;102306.09;6079493;19;20681;-74
2023/10/01 07:07:20;;;;;;;22.63;7.93;;;;;;;15.30;100.00;102299.13;6099267;19;20546;-74
2023/10/01 07:09:27;;;;;;;24.33;7.05;;;;;;;15.40;100.00;102307.56;6097266;19;20553;-75
2023/10/01 07:11:37;;;;;;;25.98;7.60;;;;;;;15.36;100.00;102306.84;6089853;19;20017;-74
2023/10/01 07:13:47;;;;;;;18.42;7.97;;;;;;;15.41;100.00;102306.69;6098913;19;20011;-75
2023/10/01 07:15:52;;;;;;;28.73;8.57;;;;;;;15.49;100.00;102316.06;6104894;19;20011;-74
2023/10/01 07:17:58;;;;;;;19.27;7.20;;;;;;;15.48;100.00;102310.81;6082180;19;19998;-74
2023/10/01 07:20:18;;;;;;;19.58;7.10;;;;;;;15.56;100.00;102319.31;6104810;19;20025;-75
2023/10/01 07:22:34;;;;;;;28.27;8.73;;;;;;;15.58;100.00;102321.00;6081759;19;20013;-74
2023/10/01 07:24:43;;;;;;;20.50;6.82;;;;;;;15.63;100.00;102322.63;6055968;19;20069;-75
2023/10/01 07:30:15;;;;;;;18.83;6.68;;;;;;;15.92;100.00;102326.81;6019518;19;20370;-74
2023/10/01 07:32:20;;;;;;;23.63;7.32;;;;;;;16.11;100.00;102325.16;6103908;19;20023;-74
2023/10/01 07:34:39;;;;;;;20.85;6.38;;;;;;;16.16;100.00;102331.16;6103949;19;20010;-73
2023/10/01 07:36:50;;;;;;;20.08;7.35;;;;;;;16.29;100.00;102322.69;6097496;19;20467;-74
2023/10/01 07:38:57;;;;;;;20.67;7.35;;;;;;;16.46;100.00;102331.69;6099805;19;20650;-74
2023/10/01 07:41:07;;;;;;;24.60;7.88;;;;;;;16.70;100.00;102336.91;6104402;19;20014;-74
2023/10/01 07:43:15;;;;;;;27.00;8.18;;;;;;;16.82;99.03;102328.44;6104146;19;20011;-74
2023/10/01 07:45:22;;;;;;;18.00;7.32;;;;;;;17.02;98.06;102324.06;6082641;19;20002;-74
2023/10/01 07:47:32;;;;;;;19.67;6.63;;;;;;;17.31;96.99;102326.28;6101842;19;20479;-75
2023/10/01 07:49:52;;;;;;;22.23;7.72;;;;;;;17.30;96.90;102319.25;6103472;19;20078;-73
2023/10/01 07:51:57;;;;;;;19.48;7.35;;;;;;;17.69;95.44;102313.03;6100556;19;20039;-75
2023/10/01 07:54:09;;;;;;;20.95;7.88;;;;;;;17.78;93.88;102309.06;6097799;19;20025;-74
2023/10/01 07:56:16;;;;;;;22.88;7.20;;;;;;;17.57;94.72;102312.75;6102744;19;20014;-74
2023/10/01 07:58:45;;;;;;;20.60;6.95;;;;;;;17.81;94.08;102314.28;6102829;19;20409;-76
2023/10/01 08:01:36;;;;;;;22.73;8.23;;;;;;;17.93;93.34;102312.81;6099806;19;20347;-74
2023/10/01 08:03:32;;;;;;;18.63;7.13;;;;;;;17.95;93.74;102309.16;6099286;19;20010;-74
2023/10/01 08:05:41;;;;;;;18.38;7.22;;;;;;;17.92;93.02;102313.75;6105494;19;20570;-76
2023/10/01 08:07:47;;;;;;;18.55;7.22;;;;;;;17.93;92.67;102313.72;6106196;19;20023;-74
2023/10/01 08:09:51;;;;;;;20.65;6.97;;;;;;;18.02;92.75;102317.72;6103879;19;20461;-75
2023/10/01 08:12:05;;;;;;;20.42;7.35;;;;;;;17.89;92.71;102312.13;6099325;19;20525;-76
2023/10/01 08:14:11;;;;;;;23.20;7.65;;;;;;;18.08;92.49;102319.22;6102934;19;20007;-73
2023/10/01 08:16:16;;;;;;;21.17;7.82;;;;;;;18.07;92.42;102321.00;6105168;19;20565;-73
2023/10/01 08:18:34;;;;;;;24.75;8.18;;;;;;;18.16;92.14;102314.38;6105543;19;20014;-74
2023/10/01 08:20:57;;;;;;;17.70;7.40;;;;;;;17.99;92.39;102308.06;6097814;19;20022;-73
2023/10/01 08:23:12;;;;;;;22.80;8.02;;;;;;;17.86;93.07;102309.59;6097753;19;20014;-74
2023/10/01 08:25:19;;;;;;;17.58;7.05;;;;;;;17.91;92.28;102306.72;6101296;19;20386;-74
2023/10/01 08:27:31;;;;;;;20.08;7.85;;;;;;;18.22;91.12;102314.09;6103342;19;20487;-76
2023/10/01 08:29:59;;;;;;;22.88;8.13;;;;;;;18.23;92.01;102307.81;6101367;19;20048;-75
2023/10/01 08:32:08;;;;;;;18.20;6.65;;;;;;;18.24;91.05;102314.00;6101210;19;20006;-75
2023/10/01 08:34:27;;;;;;;19.88;7.20;;;;;;;18.26;91.13;102307.66;6105240;19;20668;-73
2023/10/01 08:36:36;;;;;;;19.20;7.75;;;;;;;18.60;90.03;102313.97;6106566;19;20011;-76
2023/10/01 08:38:47;;;;;;;22.92;8.25;;;;;;;18.65;89.33;102311.94;6108247;19;20094;-76
2023/10/01 08:40:54;;;;;;;24.08;6.90;;;;;;;18.51;90.96;102314.41;6104278;19;19998;-75
2023/10/01 08:43:01;;;;;;;22.52;9.20;;;;;;;18.18;91.02;102323.16;6104503;19;20323;-73
2023/10/01 08:45:11;;;;;;;20.25;6.65;;;;;;;18.44;90.33;102316.53;6103660;19;20046;-74
2023/10/01 08:47:27;;;;;;;23.38;8.23;;;;;;;18.28;90.83;102313.78;6102423;19;20533;-74
2023/10/01 08:49:41;;;;;;;24.45;8.27;;;;;;;18.55;89.67;102319.50;6102236;19;20006;-75
2023/10/01 08:51:49;;;;;;;21.15;6.93;;;;;;;18.87;89.00;102317.03;6099691;19;20030;-74
2023/10/01 08:53:54;;;;;;;18.00;6.70;;;;;;;19.13;87.74;102313.00;6097047;19;20462;-74
2023/10/01 08:56:13;;;;;;;22.15;7.40;;;;;;;19.57;86.72;102311.56;6081670;19;20006;-74
2023/10/01 08:58:28;;;;;;;19.00;6.65;;;;;;;19.83;85.82;102323.47;6104584;19;20543;-74
2023/10/01 09:00:35;;;;;;;27.50;8.18;;;;;;;19.91;84.35;102323.91;6104003;19;20059;-73
2023/10/01 09:02:39;;;;;;;19.15;8.07;;;;;;;20.17;84.26;102323.28;6106558;19;20014;-74
2023/10/01 09:04:50;;;;;;;25.60;7.97;;;;;;;20.26;82.64;102321.03;6105605;19;20006;-73
2023/10/01 09:07:04;;;;;;;23.88;7.38;;;;;;;20.46;82.19;102322.53;6107808;19;20038;-74
2023/10/01 09:09:26;;;;;;;27.30;7.38;;;;;;;20.21;82.19;102315.09;6104817;19;20018;-74
2023/10/01 09:11:42;;;;;;;22.67;8.00;;;;;;;20.29;81.85;102326.19;6106849;19;20091;-74
2023/10/01 09:13:58;;;;;;;18.48;7.05;;;;;;;20.53;80.56;102327.41;6104628;19;20098;-74
2023/10/01 09:16:15;;;;;;;17.27;7.25;;;;;;;20.56;80.49;102313.06;6103609;19;20006;-74
2023/10/01 09:18:27;;;;;;;23.30;8.00;;;;;;;20.78;79.41;102315.31;6107347;19;20003;-74
2023/10/01 09:20:42;;;;;;;17.58;6.78;;;;;;;20.65;79.04;102323.22;6102944;19;20006;-74
2023/10/01 09:23:02;;;;;;;23.33;8.00;;;;;;;20.26;80.08;102308.53;6102967;19;20050;-75
2023/10/01 09:25:19;;;;;;;20.40;7.10;;;;;;;20.53;79.65;102313.22;6104948;19;20344;-74
2023/10/01 09:27:30;;;;;;;22.52;8.15;;;;;;;20.75;78.98;102323.53;6099807;19;20014;-76
2023/10/01 09:29:43;;;;;;;22.05;7.60;;;;;;;20.93;78.60;102316.19;6103974;19;20006;-76
2023/10/01 09:31:56;;;;;;;26.25;7.18;;;;;;;20.88;78.62;102319.16;6103962;19;20529;-76
2023/10/01 09:34:29;;;;;;;23.70;8.63;;;;;;;20.93;78.16;102318.84;6099615;19;20074;-75
2023/10/01 09:36:45;;;;;;;22.98;7.32;;;;;;;21.15;77.37;102318.44;6098850;19;20186;-75
2023/10/01 09:39:03;;;;;;;18.45;8.05;;;;;;;21.26;77.53;102308.78;6096339;19;20034;-76
2023/10/01 09:41:19;;;;;;;23.10;8.13;;;;;;;21.16;77.31;102312.97;6101572;19;20351;-74
2023/10/01 09:43:33;;;;;;;19.17;6.47;;;;;;;21.30;77.05;102314.81;6097625;19;20454;-74
2023/10/01 09:45:37;;;;;;;23.17;7.90;;;;;;;21.46;77.11;102317.41;6102334;19;20123;-73
2023/10/01 09:47:48;;;;;;;25.67;8.00;;;;;;;21.47;77.16;102317.28;6100582;19;20010;-76
2023/10/01 09:49:57;;;;;;;19.95;7.63;;;;;;;21.78;77.70;102310.00;6100621;19;20017;-74
2023/10/01 09:52:09;;;;;;;22.92;7.20;;;;;;;22.23;75.80;102304.44;6076784;19;20012;-73
2023/10/01 09:54:28;;;;;;;20.90;7.85;;;;;;;22.06;74.38;102302.81;6099916;19;20016;-75
2023/10/01 09:56:46;;;;;;;23.08;7.95;;;;;;;22.46;73.67;102297.50;6099413;19;20009;-73
2023/10/01 09:59:07;;;;;;;24.85;7.57;;;;;;;22.41;73.36;102302.31;6052695;19;20471;-76
2023/10/01 10:01:17;;;;;;;21.58;7.03;;;;;;;22.41;72.61;102305.00;6101227;19;20021;-76
2023/10/01 10:03:24;;;;;;;24.33;7.78;;;;;;;22.58;72.88;102304.72;6050670;19;20031;-75
2023/10/01 10:05:28;;;;;;;17.45;6.97;;;;;;;22.36;72.46;102302.66;6103418;19;20700;-75
2023/10/01 10:07:34;;;;;;;22.30;6.65;;;;;;;22.69;73.50;102299.47;6104493;19;20031;-75